createdAt,value
2022-10-06T00:00:35.992Z,9.13
2022-10-06T00:03:03.086Z,10.53
2022-10-06T00:05:31.096Z,7.63
2022-10-06T00:07:58.810Z,8.10
2022-10-06T00:10:25.947Z,9.40
2022-10-06T00:12:53.169Z,9.77
2022-10-06T00:15:21.874Z,8.13
2022-10-06T00:17:48.939Z,8.70
2022-10-06T00:20:16.044Z,11.07
2022-10-06T00:22:44.213Z,8.77
2022-10-06T00:25:12.350Z,8.93
2022-10-06T00:27:40.961Z,8.73
2022-10-06T00:30:09.834Z,8.13
2022-10-06T00:32:36.964Z,8.97
2022-10-06T00:35:04.103Z,9.50
2022-10-06T00:37:34.698Z,9.30
2022-10-06T00:40:01.812Z,13.77
2022-10-06T00:42:29.880Z,9.53
2022-10-06T00:44:59.083Z,9.47
2022-10-06T00:47:27.174Z,10.10
2022-10-06T00:49:55.710Z,11.30
2022-10-06T00:52:24.760Z,10.37
2022-10-06T00:54:52.073Z,12.87
2022-10-06T00:57:20.729Z,10.80
2022-10-06T00:59:47.937Z,12.93
2022-10-06T01:02:27.988Z,8.70
2022-10-06T01:04:57.540Z,13.30
2022-10-06T01:07:26.150Z,10.40
2022-10-06T01:09:53.674Z,9.43
2022-10-06T01:12:21.224Z,9.03
2022-10-06T01:14:48.854Z,10.70
2022-10-06T01:17:29.665Z,7.90
2022-10-06T01:20:10.788Z,11.43
2022-10-06T01:22:43.483Z,10.30
2022-10-06T01:25:12.052Z,7.27
2022-10-06T01:27:40.612Z,11.17
2022-10-06T01:30:08.979Z,9.50
2022-10-06T01:32:37.826Z,7.97
2022-10-06T01:35:05.608Z,10.20
2022-10-06T01:37:32.710Z,9.40
2022-10-06T01:39:59.777Z,7.87
2022-10-06T01:42:26.945Z,8.80
2022-10-06T01:44:54.029Z,10.17
2022-10-06T01:47:21.133Z,8.60
2022-10-06T01:49:48.206Z,13.77
2022-10-06T01:52:15.377Z,8.47
2022-10-06T01:54:42.495Z,9.70
2022-10-06T01:57:09.582Z,10.03
2022-10-06T01:59:36.660Z,10.00
2022-10-06T02:02:04.617Z,10.83
2022-10-06T02:04:31.766Z,9.83
2022-10-06T02:06:58.986Z,10.47
2022-10-06T02:09:26.100Z,9.27
2022-10-06T02:11:53.190Z,9.00
2022-10-06T02:14:20.288Z,7.57
2022-10-06T02:16:47.345Z,12.20
2022-10-06T02:19:14.539Z,9.17
2022-10-06T02:21:42.035Z,10.27
2022-10-06T02:24:09.127Z,11.83
2022-10-06T02:26:36.206Z,9.80
2022-10-06T02:29:03.321Z,11.20
2022-10-06T02:31:31.078Z,8.27
2022-10-06T02:33:58.928Z,8.57
2022-10-06T02:36:26.059Z,9.83
2022-10-06T02:38:53.115Z,10.03
2022-10-06T02:41:20.271Z,8.77
2022-10-06T02:43:47.634Z,11.07
2022-10-06T02:46:15.352Z,8.77
2022-10-06T02:48:43.161Z,9.93
2022-10-06T02:51:17.304Z,8.80
2022-10-06T02:53:45.368Z,11.60
2022-10-06T02:56:16.078Z,9.67
2022-10-06T02:58:43.748Z,11.73
2022-10-06T03:01:12.421Z,8.83
2022-10-06T03:03:39.687Z,7.77
2022-10-06T03:06:06.884Z,8.70
2022-10-06T03:08:34.062Z,7.03
2022-10-06T03:11:02.369Z,10.10
2022-10-06T03:13:30.212Z,10.03
2022-10-06T03:15:57.737Z,9.63
2022-10-06T03:18:25.031Z,10.23
2022-10-06T03:20:53.968Z,9.27
2022-10-06T03:23:21.054Z,11.10
2022-10-06T03:25:55.720Z,12.63
2022-10-06T03:28:22.928Z,11.33
2022-10-06T03:30:50.059Z,11.07
2022-10-06T03:33:17.204Z,13.03
2022-10-06T03:35:44.269Z,10.03
2022-10-06T03:38:11.373Z,8.37
2022-10-06T03:40:38.438Z,9.73
2022-10-06T03:43:05.515Z,17.57
2022-10-06T03:45:32.645Z,12.97
2022-10-06T03:48:00.438Z,11.10
2022-10-06T03:50:27.530Z,11.57
2022-10-06T03:52:54.641Z,12.67
2022-10-06T03:55:22.028Z,10.60
2022-10-06T03:57:49.116Z,11.60
2022-10-06T04:00:16.230Z,10.43
2022-10-06T04:02:43.322Z,9.47
2022-10-06T04:05:10.570Z,8.40
2022-10-06T04:07:37.640Z,9.97
2022-10-06T04:10:04.948Z,13.30
2022-10-06T04:12:32.038Z,10.90
2022-10-06T04:15:00.263Z,14.37
2022-10-06T04:17:27.815Z,12.27
2022-10-06T04:19:54.915Z,8.93
2022-10-06T04:22:21.987Z,13.17
2022-10-06T04:24:49.104Z,11.67
2022-10-06T04:27:28.363Z,15.00
2022-10-06T04:29:56.365Z,9.57
2022-10-06T04:32:23.459Z,12.63
2022-10-06T04:34:50.544Z,12.00
2022-10-06T04:37:17.656Z,16.90
2022-10-06T04:39:44.754Z,11.53
2022-10-06T04:42:11.825Z,9.20
2022-10-06T04:44:38.922Z,16.57
2022-10-06T04:47:06.109Z,15.87
2022-10-06T04:49:33.248Z,12.60
2022-10-06T04:52:00.323Z,9.80
2022-10-06T04:54:32.747Z,9.70
2022-10-06T04:57:00.766Z,9.43
2022-10-06T04:59:47.826Z,5.53
2022-10-06T05:02:15.164Z,6.77
2022-10-06T05:04:42.292Z,5.03
2022-10-06T05:07:09.350Z,5.50
2022-10-06T05:09:36.481Z,6.33
2022-10-06T05:12:03.750Z,4.67
2022-10-06T05:14:33.429Z,5.90
2022-10-06T05:17:00.956Z,4.50
2022-10-06T05:19:28.137Z,5.43
2022-10-06T05:21:55.223Z,5.13
2022-10-06T05:24:22.654Z,4.60
2022-10-06T05:26:49.745Z,4.63
2022-10-06T05:29:16.841Z,5.03
2022-10-06T05:31:44.945Z,3.53
2022-10-06T05:34:12.016Z,7.33
2022-10-06T05:36:39.163Z,7.13
2022-10-06T05:39:06.287Z,7.43
2022-10-06T05:41:34.047Z,5.00
2022-10-06T05:44:01.178Z,5.20
2022-10-06T05:46:29.436Z,4.30
2022-10-06T05:48:57.510Z,3.33
2022-10-06T05:51:30.072Z,5.07
2022-10-06T05:53:57.924Z,8.97
2022-10-06T05:56:26.041Z,7.30
2022-10-06T05:58:53.947Z,5.50
2022-10-06T06:01:23.185Z,5.70
2022-10-06T06:03:51.301Z,5.87
2022-10-06T06:06:19.710Z,4.77
2022-10-06T06:08:47.229Z,6.27
2022-10-06T06:11:14.558Z,7.10
2022-10-06T06:13:41.736Z,6.47
2022-10-06T06:16:13.084Z,9.23
2022-10-06T06:18:40.306Z,7.10
2022-10-06T06:21:08.517Z,6.50
2022-10-06T06:23:44.981Z,10.13
2022-10-06T06:26:12.932Z,5.50
2022-10-06T06:28:41.456Z,4.53
2022-10-06T06:31:17.593Z,8.00
2022-10-06T06:33:47.502Z,6.63
2022-10-06T06:36:15.628Z,11.57
2022-10-06T06:38:42.964Z,8.83
2022-10-06T06:41:24.158Z,6.40
2022-10-06T06:43:52.893Z,9.33
2022-10-06T06:46:21.994Z,8.20
2022-10-06T06:48:49.390Z,7.90
2022-10-06T06:51:16.455Z,7.27
2022-10-06T06:53:43.596Z,8.97
2022-10-06T06:56:10.918Z,8.63
2022-10-06T06:58:38.416Z,7.57
2022-10-06T07:01:06.459Z,3.80
2022-10-06T07:03:56.250Z,4.43
2022-10-06T07:06:23.536Z,5.83
2022-10-06T07:08:54.662Z,5.30
2022-10-06T07:11:23.657Z,8.43
2022-10-06T07:13:58.451Z,8.97
2022-10-06T07:16:44.708Z,5.60
2022-10-06T07:19:30.784Z,7.50
2022-10-06T07:22:20.057Z,5.80
2022-10-06T07:25:06.585Z,9.93
2022-10-06T07:27:47.637Z,7.23
2022-10-06T07:30:20.222Z,5.97
2022-10-06T07:32:47.996Z,9.43
2022-10-06T07:35:16.733Z,7.07
2022-10-06T07:37:43.951Z,8.00
2022-10-06T07:40:11.583Z,6.00
2022-10-06T07:42:49.283Z,5.20
2022-10-06T07:45:36.015Z,3.33
2022-10-06T07:48:03.321Z,8.05
2022-10-06T07:50:30.685Z,5.93
2022-10-06T07:52:57.794Z,10.32
2022-10-06T07:55:24.869Z,4.00
2022-10-06T07:57:52.875Z,7.32
2022-10-06T08:00:23.120Z,3.65
2022-10-06T08:02:50.381Z,5.35
2022-10-06T08:05:17.457Z,7.25
2022-10-06T08:07:44.510Z,8.57
2022-10-06T08:10:11.587Z,4.35
2022-10-06T08:12:40.501Z,5.35
2022-10-06T08:15:09.068Z,7.32
2022-10-06T08:17:36.814Z,6.30
2022-10-06T08:20:08.311Z,9.88
2022-10-06T08:22:36.209Z,8.20
2022-10-06T08:25:07.299Z,5.95
2022-10-06T08:27:35.503Z,7.28
2022-10-06T08:30:02.916Z,7.53
2022-10-06T08:32:30.026Z,5.18
2022-10-06T08:34:57.798Z,6.35
2022-10-06T08:37:26.730Z,6.80
2022-10-06T08:39:54.305Z,7.20
2022-10-06T08:42:39.678Z,7.03
2022-10-06T08:45:15.271Z,7.95
2022-10-06T08:47:49.609Z,6.38
2022-10-06T08:50:18.045Z,4.57
2022-10-06T08:52:47.990Z,6.03
2022-10-06T08:55:35.795Z,5.90
2022-10-06T09:00:41.408Z,8.30
2022-10-06T09:03:17.332Z,6.93
2022-10-06T09:05:44.924Z,6.28
2022-10-06T09:08:30.591Z,7.95
2022-10-06T09:10:57.642Z,5.18
2022-10-06T09:13:53.145Z,9.13
2022-10-06T09:16:22.536Z,8.65
2022-10-06T09:19:08.169Z,4.65
2022-10-06T09:21:37.190Z,5.47
2022-10-06T09:24:11.124Z,6.20
2022-10-06T09:26:43.273Z,7.78
2022-10-06T09:29:10.646Z,7.57
2022-10-06T09:31:39.094Z,6.82
2022-10-06T09:34:13.788Z,6.53
2022-10-06T09:37:01.690Z,7.22
2022-10-06T09:39:33.481Z,5.90
2022-10-06T09:42:23.959Z,6.60
2022-10-06T09:44:51.325Z,5.97
2022-10-06T09:47:35.276Z,6.88
2022-10-06T09:50:03.957Z,5.57
2022-10-06T09:52:31.090Z,4.57
2022-10-06T09:55:10.025Z,6.97
2022-10-06T09:57:37.363Z,7.25
2022-10-06T10:00:05.275Z,8.63
2022-10-06T10:02:36.854Z,6.72
2022-10-06T10:05:08.537Z,4.72
2022-10-06T10:07:36.806Z,5.72
2022-10-06T10:10:23.658Z,8.80
2022-10-06T10:12:54.751Z,8.65
2022-10-06T10:15:21.812Z,5.80
2022-10-06T10:17:50.654Z,7.82
2022-10-06T10:20:28.184Z,5.93
2022-10-06T10:22:59.519Z,5.00
2022-10-06T10:25:40.380Z,7.25
2022-10-06T10:28:46.916Z,7.75
2022-10-06T10:31:31.423Z,6.22
2022-10-06T10:34:11.818Z,4.90
2022-10-06T10:36:44.314Z,11.02
2022-10-06T10:39:14.758Z,7.20
2022-10-06T10:41:47.135Z,4.93
2022-10-06T10:44:47.358Z,8.25
2022-10-06T10:47:18.457Z,6.97
2022-10-06T10:49:49.062Z,6.32
2022-10-06T10:52:18.529Z,6.97
2022-10-06T10:54:45.608Z,6.57
2022-10-06T10:57:23.284Z,5.65
2022-10-06T11:00:01.760Z,5.28
2022-10-06T11:02:28.881Z,4.97
2022-10-06T11:05:03.851Z,5.45
2022-10-06T11:07:35.066Z,6.35
2022-10-06T11:10:11.107Z,6.97
2022-10-06T11:12:50.224Z,6.22
2022-10-06T11:15:43.903Z,6.80
2022-10-06T11:18:35.489Z,6.47
2022-10-06T11:21:06.037Z,5.85
2022-10-06T11:23:51.662Z,7.68
2022-10-06T11:26:27.543Z,6.57
2022-10-06T11:29:13.052Z,4.90
2022-10-06T11:31:58.919Z,7.88
2022-10-06T11:34:26.280Z,7.20
2022-10-06T11:36:57.893Z,6.40
2022-10-06T11:39:43.365Z,11.98
2022-10-06T11:45:05.953Z,8.45
2022-10-06T11:47:47.306Z,7.53
2022-10-06T11:50:33.357Z,7.05
2022-10-06T11:53:00.855Z,7.63
2022-10-06T11:55:29.303Z,6.28
2022-10-06T12:01:03.423Z,5.82
2022-10-06T12:03:33.539Z,8.40
2022-10-06T12:06:02.640Z,8.02
2022-10-06T12:08:35.724Z,8.73
2022-10-06T12:11:02.798Z,8.30
2022-10-06T12:19:51.744Z,5.75
2022-10-06T12:22:22.539Z,10.80
2022-10-06T12:24:58.142Z,8.52
2022-10-06T12:27:28.579Z,7.90
2022-10-06T12:29:59.277Z,7.60
2022-10-06T12:32:38.780Z,7.72
2022-10-06T12:35:09.732Z,6.50
2022-10-06T12:37:54.460Z,5.60
2022-10-06T12:40:40.498Z,6.80
2022-10-06T12:43:32.353Z,8.65
2022-10-06T12:46:00.858Z,7.47
2022-10-06T12:48:31.284Z,11.20
2022-10-06T12:51:02.920Z,9.70
2022-10-06T12:53:32.842Z,9.82
2022-10-06T12:56:02.693Z,6.43
2022-10-06T12:58:32.406Z,6.28
2022-10-06T13:01:00.782Z,6.18
2022-10-06T13:03:28.302Z,6.88
2022-10-06T13:06:03.333Z,7.80
2022-10-06T13:08:31.606Z,7.55
2022-10-06T13:11:17.480Z,9.65
2022-10-06T13:13:48.752Z,8.02
2022-10-06T13:16:16.843Z,8.20
2022-10-06T13:18:44.122Z,7.88
2022-10-06T13:21:16.088Z,8.93
2022-10-06T13:23:43.833Z,6.65
2022-10-06T13:26:13.977Z,5.85
2022-10-06T13:28:41.048Z,8.23
2022-10-06T13:31:22.816Z,5.85
2022-10-06T13:33:57.894Z,6.05
2022-10-06T13:36:25.639Z,7.15
2022-10-06T13:38:53.352Z,6.60
2022-10-06T13:41:23.216Z,5.60
2022-10-06T13:43:50.320Z,5.22
2022-10-06T13:46:20.248Z,7.32
2022-10-06T13:48:49.407Z,8.32
2022-10-06T13:51:22.141Z,6.57
2022-10-06T13:53:49.427Z,8.02
2022-10-06T13:56:33.726Z,5.70
2022-10-06T13:59:19.510Z,8.75
2022-10-06T14:01:46.708Z,4.85
2022-10-06T14:04:18.391Z,6.10
2022-10-06T14:06:47.371Z,7.72
2022-10-06T14:09:14.461Z,6.25
2022-10-06T14:11:43.506Z,7.15
2022-10-06T14:14:15.171Z,6.00
2022-10-06T14:16:47.143Z,9.43
2022-10-06T14:19:27.556Z,7.30
2022-10-06T14:21:54.628Z,5.35
2022-10-06T14:24:23.551Z,6.25
2022-10-06T14:26:51.176Z,8.40
2022-10-06T14:29:19.052Z,8.07
2022-10-06T14:31:46.445Z,7.07
2022-10-06T14:34:15.419Z,9.38
2022-10-06T14:36:43.902Z,7.63
2022-10-06T14:39:13.122Z,6.15
2022-10-06T14:41:40.295Z,5.75
2022-10-06T14:44:12.271Z,4.85
2022-10-06T14:46:40.328Z,7.38
2022-10-06T14:49:08.007Z,4.55
2022-10-06T14:51:37.003Z,6.10
2022-10-06T14:54:05.090Z,5.82
2022-10-06T14:56:33.483Z,7.88
2022-10-06T14:59:02.655Z,8.20
2022-10-06T15:01:29.946Z,7.38
2022-10-06T15:03:58.172Z,4.78
2022-10-06T15:06:44.082Z,7.90
2022-10-06T15:09:11.484Z,5.57
2022-10-06T15:11:39.211Z,8.38
2022-10-06T15:14:08.499Z,7.93
2022-10-06T15:16:37.388Z,5.25
2022-10-06T15:19:05.593Z,5.82
2022-10-06T15:21:33.626Z,6.70
2022-10-06T15:24:02.300Z,6.63
2022-10-06T15:26:48.592Z,6.15
2022-10-06T15:29:16.056Z,6.57
2022-10-06T15:31:44.225Z,5.13
2022-10-06T15:34:15.044Z,4.95
2022-10-06T15:36:42.902Z,6.88
2022-10-06T15:39:10.984Z,4.38
2022-10-06T15:41:38.863Z,8.45
2022-10-06T15:44:06.401Z,6.63
2022-10-06T15:46:35.186Z,5.50
2022-10-06T15:49:03.528Z,7.78
2022-10-06T15:51:31.615Z,5.55
2022-10-06T15:53:58.960Z,9.55
2022-10-06T15:56:26.731Z,4.82
2022-10-06T15:58:53.849Z,8.50
2022-10-06T16:01:39.241Z,7.57
2022-10-06T16:04:12.577Z,5.37
2022-10-06T16:06:49.577Z,8.07
2022-10-06T16:09:18.469Z,8.67
2022-10-06T16:11:46.039Z,7.87
2022-10-06T16:14:13.713Z,12.13
2022-10-06T16:16:43.680Z,5.70
2022-10-06T16:19:11.157Z,9.90
2022-10-06T16:21:38.292Z,9.93
2022-10-06T16:24:05.429Z,11.47
2022-10-06T16:26:32.545Z,9.70
2022-10-06T16:29:00.220Z,10.23
2022-10-06T16:31:27.334Z,7.73
2022-10-06T16:33:54.436Z,6.37
2022-10-06T16:36:21.861Z,5.83
2022-10-06T16:38:52.500Z,5.57
2022-10-06T16:41:20.121Z,10.40
2022-10-06T16:43:48.292Z,6.23
2022-10-06T16:46:17.216Z,10.30
2022-10-06T16:48:45.337Z,7.63
2022-10-06T16:51:12.453Z,8.30
2022-10-06T16:53:40.460Z,10.57
2022-10-06T16:56:09.083Z,15.63
2022-10-06T16:58:37.101Z,9.00
2022-10-06T17:01:04.449Z,8.37
2022-10-06T17:03:31.712Z,5.77
2022-10-06T17:06:02.266Z,6.20
2022-10-06T17:08:29.358Z,8.73
2022-10-06T17:11:00.828Z,16.03
2022-10-06T17:13:27.995Z,9.33
2022-10-06T17:15:59.238Z,16.13
2022-10-06T17:18:26.758Z,15.87
2022-10-06T17:20:55.190Z,12.17
2022-10-06T17:23:22.491Z,18.30
2022-10-06T17:25:59.446Z,17.27
2022-10-06T17:28:26.664Z,17.30
2022-10-06T17:30:59.030Z,17.53
2022-10-06T17:33:32.479Z,12.60
2022-10-06T17:36:06.560Z,13.60
2022-10-06T17:38:34.465Z,16.00
2022-10-06T17:41:06.813Z,11.43
2022-10-06T17:43:37.692Z,11.03
2022-10-06T17:46:05.603Z,10.33
2022-10-06T17:48:33.356Z,10.13
2022-10-06T17:51:00.824Z,13.13
2022-10-06T17:53:28.155Z,12.97
2022-10-06T17:55:55.324Z,10.97
2022-10-06T17:58:23.044Z,11.87
2022-10-06T18:00:50.621Z,10.20
2022-10-06T18:03:18.384Z,11.33
2022-10-06T18:05:53.345Z,9.73
2022-10-06T18:08:20.542Z,9.73
2022-10-06T18:11:06.561Z,13.07
2022-10-06T18:13:33.623Z,10.90
2022-10-06T18:16:00.776Z,10.90
2022-10-06T18:18:27.978Z,10.53
2022-10-06T18:21:02.226Z,8.00
2022-10-06T18:23:31.974Z,9.97
2022-10-06T18:26:00.609Z,14.00
2022-10-06T18:28:28.753Z,10.03
2022-10-06T18:30:55.824Z,12.10
2022-10-06T18:36:14.365Z,11.03
2022-10-06T18:38:43.614Z,9.60
2022-10-06T18:41:17.649Z,13.73
2022-10-06T18:43:44.940Z,11.03
2022-10-06T18:46:33.157Z,9.40
2022-10-06T18:49:03.118Z,12.57
2022-10-06T18:51:32.327Z,19.83
2022-10-06T18:54:00.223Z,13.40
2022-10-06T18:56:29.973Z,9.03
2022-10-06T18:58:58.582Z,12.53
2022-10-06T19:01:29.257Z,11.70
2022-10-06T19:03:57.556Z,12.80
2022-10-06T19:06:26.624Z,14.23
2022-10-06T19:08:54.809Z,16.83
2022-10-06T19:11:40.733Z,11.03
2022-10-06T19:14:08.061Z,11.00
2022-10-06T19:16:35.696Z,14.40
2022-10-06T19:19:10.179Z,10.93
2022-10-06T19:21:38.156Z,11.50
2022-10-06T19:24:05.573Z,9.97
2022-10-06T19:26:32.770Z,12.13
2022-10-06T19:29:04.080Z,15.00
2022-10-06T19:31:31.294Z,16.10
2022-10-06T19:34:01.618Z,8.80
2022-10-06T19:36:29.853Z,12.00
2022-10-06T19:38:57.532Z,9.43
2022-10-06T19:41:43.860Z,15.23
2022-10-06T19:44:11.005Z,16.70
2022-10-06T19:46:38.079Z,13.37
2022-10-06T19:49:06.046Z,11.20
2022-10-06T19:51:34.358Z,12.33
2022-10-06T19:54:04.852Z,11.23
2022-10-06T19:56:33.152Z,12.63
2022-10-06T19:59:00.795Z,12.47
2022-10-06T20:01:28.619Z,14.23
2022-10-06T20:03:55.850Z,14.87
2022-10-06T20:06:23.704Z,15.37
2022-10-06T20:08:51.324Z,14.30
2022-10-06T20:11:22.573Z,14.67
2022-10-06T20:13:49.787Z,12.03
2022-10-06T20:16:18.834Z,18.60
2022-10-06T20:18:47.132Z,11.67
2022-10-06T20:21:16.904Z,16.27
2022-10-06T20:23:50.970Z,12.83
2022-10-06T20:26:19.784Z,14.53
2022-10-06T20:28:47.232Z,12.53
2022-10-06T20:31:22.380Z,13.40
2022-10-06T20:33:50.293Z,11.50
2022-10-06T20:36:18.100Z,14.83
2022-10-06T20:39:04.514Z,12.70
2022-10-06T20:41:32.582Z,14.13
2022-10-06T20:44:00.386Z,13.87
2022-10-06T20:46:31.640Z,13.77
2022-10-06T20:48:59.213Z,17.43
2022-10-06T20:51:27.812Z,15.67
2022-10-06T20:53:54.981Z,15.53
2022-10-06T20:56:22.035Z,18.73
2022-10-06T20:58:50.090Z,23.90
2022-10-06T21:01:18.828Z,17.53
2022-10-06T21:03:47.193Z,15.73
2022-10-06T21:06:14.403Z,19.30
2022-10-06T21:08:46.027Z,18.00
2022-10-06T21:11:13.915Z,14.20
2022-10-06T21:13:48.295Z,14.60
2022-10-06T21:16:15.346Z,14.13
2022-10-06T21:18:42.430Z,14.07
2022-10-06T21:21:11.258Z,12.10
2022-10-06T21:23:39.797Z,16.53
2022-10-06T21:26:07.715Z,15.60
2022-10-06T21:28:35.520Z,13.80
2022-10-06T21:31:03.266Z,13.97
2022-10-06T21:33:30.888Z,14.33
2022-10-06T21:36:01.724Z,16.90
2022-10-06T21:38:29.803Z,16.50
2022-10-06T21:41:01.364Z,17.97
2022-10-06T21:43:28.811Z,16.13
2022-10-06T21:46:10.953Z,15.63
2022-10-06T21:48:43.119Z,21.80
2022-10-06T21:51:10.179Z,13.67
2022-10-06T21:53:37.212Z,13.73
2022-10-06T21:56:04.247Z,12.63
2022-10-06T21:58:31.271Z,14.47
2022-10-06T22:01:01.991Z,15.20
2022-10-06T22:03:29.031Z,18.37
2022-10-06T22:05:56.320Z,17.53
2022-10-06T22:08:23.370Z,17.80
2022-10-06T22:10:50.403Z,14.67
2022-10-06T22:13:17.431Z,15.30
2022-10-06T22:15:44.536Z,14.07
2022-10-06T22:18:11.572Z,21.20
2022-10-06T22:20:38.604Z,15.43
2022-10-06T22:23:05.641Z,15.70
2022-10-06T22:25:32.700Z,17.70
2022-10-06T22:27:59.764Z,16.20
2022-10-06T22:30:27.000Z,13.93
2022-10-06T22:32:54.255Z,16.20
2022-10-06T22:35:21.290Z,17.97
2022-10-06T22:37:49.526Z,16.73
2022-10-06T22:40:16.572Z,13.47
2022-10-06T22:42:43.591Z,19.73
2022-10-06T22:45:10.830Z,16.43
2022-10-06T22:47:37.845Z,16.53
2022-10-06T22:50:05.119Z,27.07
2022-10-06T22:52:32.145Z,21.37
2022-10-06T22:54:59.193Z,18.57
2022-10-06T22:57:26.315Z,15.80
2022-10-06T22:59:53.394Z,15.70
2022-10-06T23:02:20.498Z,14.53
2022-10-06T23:04:47.515Z,15.23
2022-10-06T23:07:14.561Z,19.90
2022-10-06T23:09:41.766Z,15.27
2022-10-06T23:12:08.807Z,11.97
2022-10-06T23:14:35.820Z,18.47
2022-10-06T23:17:02.859Z,15.57
2022-10-06T23:19:29.880Z,22.60
2022-10-06T23:21:56.919Z,16.47
2022-10-06T23:24:23.940Z,17.33
2022-10-06T23:26:51.006Z,17.77
2022-10-06T23:29:18.043Z,20.77
2022-10-06T23:31:45.098Z,18.40
2022-10-06T23:34:12.155Z,17.07
2022-10-06T23:36:39.242Z,19.63
2022-10-06T23:39:06.307Z,19.73
2022-10-06T23:41:34.442Z,17.50
2022-10-06T23:44:01.575Z,18.97
2022-10-06T23:46:28.610Z,18.97
2022-10-06T23:48:55.644Z,19.10
2022-10-06T23:51:22.674Z,16.07
2022-10-06T23:53:49.719Z,18.60
2022-10-06T23:56:18.913Z,16.23
2022-10-06T23:58:45.947Z,13.67
